createdAt,value
2022-10-01T00:03:45.353Z,100160.94
2022-10-01T00:06:30.404Z,100155.44
2022-10-01T00:09:15.863Z,100148.78
2022-10-01T00:12:00.878Z,100135.50
2022-10-01T00:14:46.091Z,100135.50
2022-10-01T00:17:30.947Z,100143.88
2022-10-01T00:20:15.890Z,100145.69
2022-10-01T00:23:00.598Z,100149.75
2022-10-01T00:25:45.487Z,100146.38
2022-10-01T00:28:30.255Z,100158.19
2022-10-01T00:31:16.060Z,100153.72
2022-10-01T00:34:05.007Z,100137.25
2022-10-01T00:36:49.869Z,100141.34
2022-10-01T00:39:34.756Z,100137.78
2022-10-01T00:42:23.148Z,100122.28
2022-10-01T00:45:11.482Z,100121.38
2022-10-01T00:47:58.335Z,100123.44
2022-10-01T00:50:44.178Z,100120.41
2022-10-01T00:53:29.374Z,100110.31
2022-10-01T00:56:14.311Z,100103.38
2022-10-01T00:59:00.090Z,100099.97
2022-10-01T01:01:45.025Z,100086.22
2022-10-01T01:04:29.874Z,100088.06
2022-10-01T01:07:15.823Z,100085.13
2022-10-01T01:10:01.543Z,100073.94
2022-10-01T01:13:28.284Z,100074.13
2022-10-01T01:16:22.778Z,100064.88
2022-10-01T01:19:14.765Z,100060.13
2022-10-01T01:22:04.438Z,100055.44
2022-10-01T01:25:12.036Z,100048.03
2022-10-01T01:28:21.632Z,100033.50
2022-10-01T01:31:19.993Z,100027.91
2022-10-01T01:34:12.304Z,100031.72
2022-10-01T01:37:11.803Z,100015.34
2022-10-01T01:39:59.613Z,100010.91
2022-10-01T01:42:46.795Z,100009.72
2022-10-01T01:45:35.454Z,100001.47
2022-10-01T01:48:23.440Z,99990.25
2022-10-01T01:51:16.367Z,99985.22
2022-10-01T01:54:01.711Z,99978.97
2022-10-01T01:56:49.523Z,99973.16
2022-10-01T01:59:35.747Z,99960.75
2022-10-01T02:02:28.613Z,99950.25
2022-10-01T02:05:17.676Z,99940.00
2022-10-01T02:08:16.071Z,99925.06
2022-10-01T02:11:19.609Z,99906.88
2022-10-01T02:14:27.780Z,99902.69
2022-10-01T02:17:36.125Z,99884.03
2022-10-01T02:20:29.990Z,99888.16
2022-10-01T02:23:19.530Z,99873.34
2022-10-01T02:26:12.297Z,99862.75
2022-10-01T02:29:04.344Z,99856.19
2022-10-01T02:31:55.457Z,99845.41
2022-10-01T02:34:41.743Z,99833.63
2022-10-01T02:37:28.176Z,99834.72
2022-10-01T02:40:18.457Z,99826.59
2022-10-01T02:43:33.660Z,99832.69
2022-10-01T02:46:29.333Z,99837.56
2022-10-01T02:49:14.908Z,99842.19
2022-10-01T02:52:18.079Z,99842.19
2022-10-01T02:55:14.650Z,99844.22
2022-10-01T02:57:59.444Z,99853.19
2022-10-01T03:00:44.806Z,99841.50
2022-10-01T03:03:31.519Z,99854.34
2022-10-01T03:06:16.996Z,99860.94
2022-10-01T03:09:02.415Z,99856.47
2022-10-01T03:11:47.439Z,99853.09
2022-10-01T03:14:32.881Z,99847.31
2022-10-01T03:17:17.927Z,99851.06
2022-10-01T03:20:03.728Z,99844.50
2022-10-01T03:22:48.627Z,99853.81
2022-10-01T03:25:33.371Z,99844.56
2022-10-01T03:28:18.294Z,99844.22
2022-10-01T03:31:10.702Z,99840.94
2022-10-01T03:33:57.872Z,99845.31
2022-10-01T03:36:43.075Z,99831.16
2022-10-01T03:39:28.218Z,99833.44
2022-10-01T03:42:13.036Z,99824.94
2022-10-01T03:44:57.893Z,99818.00
2022-10-01T03:47:42.657Z,99824.56
2022-10-01T03:50:27.567Z,99813.63
2022-10-01T03:53:12.506Z,99823.66
2022-10-01T03:55:58.751Z,99816.44
2022-10-01T03:58:44.171Z,99806.03
2022-10-01T04:01:29.170Z,99797.72
2022-10-01T04:04:14.880Z,99796.53
2022-10-01T04:06:59.702Z,99793.94
2022-10-01T04:09:44.633Z,99791.03
2022-10-01T04:12:29.704Z,99792.69
2022-10-01T04:15:15.163Z,99790.50
2022-10-01T04:18:00.487Z,99768.75
2022-10-01T04:20:45.252Z,99782.00
2022-10-01T04:23:30.244Z,99778.88
2022-10-01T04:26:15.191Z,99773.66
2022-10-01T04:29:00.133Z,99765.81
2022-10-01T04:31:45.134Z,99730.53
2022-10-01T04:34:48.991Z,99738.50
2022-10-01T04:37:34.161Z,99692.25
2022-10-01T04:40:18.941Z,99617.94
2022-10-01T04:43:05.542Z,99668.97
2022-10-01T04:45:50.560Z,99650.94
2022-10-01T04:48:35.363Z,99676.16
2022-10-01T04:51:20.228Z,99674.16
2022-10-01T04:54:05.137Z,99684.09
2022-10-01T04:56:49.955Z,99713.72
2022-10-01T04:59:34.687Z,99740.94
2022-10-01T05:02:19.621Z,99729.56
2022-10-01T05:05:06.828Z,99734.09
2022-10-01T05:07:51.543Z,99736.84
2022-10-01T05:10:36.548Z,99730.19
2022-10-01T05:13:21.338Z,99737.56
2022-10-01T05:16:07.523Z,99741.25
2022-10-01T05:18:54.645Z,99740.59
2022-10-01T05:21:39.610Z,99736.09
2022-10-01T05:24:25.042Z,99724.56
2022-10-01T05:27:13.231Z,99726.78
2022-10-01T05:29:57.982Z,99721.91
2022-10-01T05:32:43.030Z,99731.16
2022-10-01T05:35:28.677Z,99727.47
2022-10-01T05:38:13.856Z,99724.81
2022-10-01T05:40:58.607Z,99727.31
2022-10-01T05:43:43.920Z,99729.38
2022-10-01T05:46:28.769Z,99738.25
2022-10-01T05:49:13.730Z,99743.44
2022-10-01T05:52:00.537Z,99753.47
2022-10-01T05:54:45.315Z,99748.16
2022-10-01T05:57:31.041Z,99764.69
2022-10-01T06:00:16.235Z,99763.50
2022-10-01T06:03:04.744Z,99760.31
2022-10-01T06:05:49.891Z,99768.69
2022-10-01T06:08:35.244Z,99763.81
2022-10-01T06:11:22.486Z,99767.47
2022-10-01T06:14:07.628Z,99782.41
2022-10-01T06:16:53.420Z,99781.91
2022-10-01T06:19:38.494Z,99780.50
2022-10-01T06:22:23.550Z,99782.16
2022-10-01T06:25:14.891Z,99778.75
2022-10-01T06:28:01.179Z,99789.47
2022-10-01T06:30:46.896Z,99781.72
2022-10-01T06:33:32.028Z,99794.59
2022-10-01T06:36:16.938Z,99791.28
2022-10-01T06:39:01.678Z,99796.44
2022-10-01T06:41:48.004Z,99796.81
2022-10-01T06:44:33.078Z,99799.88
2022-10-01T06:47:17.883Z,99797.44
2022-10-01T06:50:02.805Z,99797.00
2022-10-01T06:52:50.610Z,99801.84
2022-10-01T06:55:36.839Z,99805.97
2022-10-01T06:58:26.170Z,99817.00
2022-10-01T07:01:11.403Z,99806.66
2022-10-01T07:03:56.394Z,99808.56
2022-10-01T07:06:41.302Z,99810.00
2022-10-01T07:09:26.527Z,99807.94
2022-10-01T07:12:11.732Z,99802.50
2022-10-01T07:14:56.647Z,99804.34
2022-10-01T07:17:49.960Z,99803.81
2022-10-01T07:20:39.372Z,99809.66
2022-10-01T07:23:24.398Z,99810.06
2022-10-01T07:26:09.183Z,99812.53
2022-10-01T07:28:55.078Z,99809.09
2022-10-01T07:31:39.833Z,99817.94
2022-10-01T07:34:26.077Z,99818.78
2022-10-01T07:37:11.299Z,99815.53
2022-10-01T07:39:56.116Z,99820.25
2022-10-01T07:42:41.104Z,99822.09
2022-10-01T07:45:26.370Z,99825.16
2022-10-01T07:48:11.312Z,99824.16
2022-10-01T07:50:58.630Z,99829.94
2022-10-01T07:53:43.323Z,99834.44
2022-10-01T07:56:28.260Z,99833.44
2022-10-01T07:59:13.067Z,99825.16
2022-10-01T08:01:58.453Z,99835.56
2022-10-01T08:05:01.983Z,99833.41
2022-10-01T08:07:48.373Z,99828.75
2022-10-01T08:10:36.346Z,99836.78
2022-10-01T08:13:24.819Z,99829.41
2022-10-01T08:16:11.731Z,99844.16
2022-10-01T08:18:56.774Z,99842.81
2022-10-01T08:21:42.521Z,99837.41
2022-10-01T08:24:27.588Z,99847.22
2022-10-01T08:27:12.713Z,99845.81
2022-10-01T08:29:57.561Z,99854.81
2022-10-01T08:32:42.479Z,99852.56
2022-10-01T08:35:28.439Z,99852.31
2022-10-01T08:38:14.453Z,99853.91
2022-10-01T08:41:07.096Z,99861.72
2022-10-01T08:43:52.880Z,99861.97
2022-10-01T08:46:37.803Z,99876.50
2022-10-01T08:49:38.810Z,99869.53
2022-10-01T08:52:28.413Z,99875.66
2022-10-01T08:55:22.095Z,99867.72
2022-10-01T08:58:12.452Z,99885.34
2022-10-01T09:00:57.459Z,99878.81
2022-10-01T09:03:42.318Z,99880.03
2022-10-01T09:06:28.171Z,99891.28
2022-10-01T09:09:56.096Z,99896.41
2022-10-01T09:12:46.948Z,99899.31
2022-10-01T09:15:47.108Z,99910.34
2022-10-01T09:18:45.256Z,99916.13
2022-10-01T09:21:50.604Z,99918.59
2022-10-01T09:24:46.824Z,99927.84
2022-10-01T09:27:31.871Z,99928.25
2022-10-01T09:30:21.644Z,99926.63
2022-10-01T09:33:20.046Z,99928.50
2022-10-01T09:36:16.081Z,99930.19
2022-10-01T09:39:12.245Z,99934.84
2022-10-01T09:41:57.601Z,99940.44
2022-10-01T09:44:42.661Z,99941.66
2022-10-01T09:47:28.244Z,99937.75
2022-10-01T09:50:17.909Z,99945.06
2022-10-01T09:53:03.431Z,99942.25
2022-10-01T09:55:54.008Z,99948.84
2022-10-01T09:58:44.971Z,99942.53
2022-10-01T10:01:46.551Z,99943.59
2022-10-01T10:04:33.665Z,99943.94
2022-10-01T10:07:19.699Z,99947.56
2022-10-01T10:10:23.419Z,99944.69
2022-10-01T10:13:14.709Z,99941.06
2022-10-01T10:16:00.208Z,99948.75
2022-10-01T10:18:51.945Z,99940.53
2022-10-01T10:21:37.676Z,99954.09
2022-10-01T10:24:34.166Z,99949.66
2022-10-01T10:27:26.598Z,99954.41
2022-10-01T10:30:17.650Z,99951.94
2022-10-01T10:33:05.673Z,99956.38
2022-10-01T10:36:02.344Z,99967.25
2022-10-01T10:38:50.592Z,99983.94
2022-10-01T10:41:35.887Z,99976.88
2022-10-01T10:44:24.196Z,99987.03
2022-10-01T10:47:15.208Z,99989.41
2022-10-01T10:50:03.961Z,99979.56
2022-10-01T10:52:48.965Z,99984.09
2022-10-01T10:55:33.816Z,99985.28
2022-10-01T10:58:19.078Z,99983.09
2022-10-01T11:01:13.037Z,99993.03
2022-10-01T11:04:00.802Z,99999.50
2022-10-01T11:06:55.231Z,99995.84
2022-10-01T11:10:12.990Z,99997.91
2022-10-01T11:13:06.539Z,99993.41
2022-10-01T11:16:29.477Z,100006.38
2022-10-01T11:19:35.040Z,100001.06
2022-10-01T11:22:29.208Z,100001.50
2022-10-01T11:25:24.878Z,99995.34
2022-10-01T11:28:37.056Z,100008.47
2022-10-01T11:31:43.948Z,100008.75
2022-10-01T11:34:58.300Z,99994.47
2022-10-01T11:37:59.714Z,99999.81
2022-10-01T11:41:13.041Z,99991.84
2022-10-01T11:44:15.401Z,100010.66
2022-10-01T11:47:17.033Z,100011.25
2022-10-01T11:50:15.631Z,100009.47
2022-10-01T11:53:09.302Z,100023.78
2022-10-01T11:56:51.668Z,100020.59
2022-10-01T11:59:49.956Z,100025.66
2022-10-01T12:02:45.730Z,100025.97
2022-10-01T12:05:33.767Z,100027.16
2022-10-01T12:08:24.888Z,100027.69
2022-10-01T12:11:20.626Z,100028.94
2022-10-01T12:14:20.347Z,100029.19
2022-10-01T12:17:25.678Z,100031.09
2022-10-01T12:20:25.944Z,100032.44
2022-10-01T12:23:17.891Z,100030.53
2022-10-01T12:26:38.811Z,100032.88
2022-10-01T12:29:51.589Z,100044.56
2022-10-01T12:32:39.509Z,100045.03
2022-10-01T12:35:47.694Z,100067.22
2022-10-01T12:38:49.716Z,100082.81
2022-10-01T12:42:05.758Z,100070.94
2022-10-01T12:45:10.167Z,100066.97
2022-10-01T12:48:35.952Z,100072.81
2022-10-01T12:51:39.036Z,100087.97
2022-10-01T12:54:45.625Z,100088.19
2022-10-01T12:57:39.828Z,100090.13
2022-10-01T13:00:27.205Z,100090.72
2022-10-01T13:03:37.246Z,100084.06
2022-10-01T13:06:56.764Z,100074.56
2022-10-01T13:10:12.284Z,100087.63
2022-10-01T13:13:16.822Z,100085.88
2022-10-01T13:16:13.018Z,100098.22
2022-10-01T13:19:05.550Z,100089.53
2022-10-01T13:22:08.937Z,100087.84
2022-10-01T13:25:26.825Z,100077.84
2022-10-01T13:28:22.987Z,100088.84
2022-10-01T13:31:19.013Z,100128.19
2022-10-01T13:34:24.313Z,100132.03
2022-10-01T13:37:32.594Z,100137.09
2022-10-01T13:40:24.807Z,100135.34
2022-10-01T13:43:21.093Z,100139.47
2022-10-01T13:46:09.105Z,100136.38
2022-10-01T13:48:55.164Z,100136.38
2022-10-01T13:51:43.734Z,100137.78
2022-10-01T13:54:43.872Z,100141.06
2022-10-01T13:57:38.297Z,100143.00
2022-10-01T14:00:24.762Z,100145.75
2022-10-01T14:03:38.116Z,100149.00
2022-10-01T14:06:30.772Z,100150.59
2022-10-01T14:09:48.397Z,100161.47
2022-10-01T14:12:55.008Z,100165.13
2022-10-01T14:15:58.680Z,100171.69
2022-10-01T14:18:48.794Z,100169.16
2022-10-01T14:21:49.756Z,100170.00
2022-10-01T14:25:00.500Z,100177.41
2022-10-01T14:27:52.921Z,100188.75
2022-10-01T14:31:07.171Z,100185.50
2022-10-01T14:34:20.097Z,100185.81
2022-10-01T14:37:16.950Z,100182.72
2022-10-01T14:40:23.693Z,100191.41
2022-10-01T14:43:39.068Z,100197.53
2022-10-01T14:46:24.297Z,100201.44
2022-10-01T14:49:30.211Z,100209.25
2022-10-01T14:52:22.560Z,100213.72
2022-10-01T14:55:13.761Z,100223.50
2022-10-01T14:57:58.929Z,100220.34
2022-10-01T15:00:51.140Z,100216.75
2022-10-01T15:03:41.897Z,100231.97
2022-10-01T15:06:29.600Z,100235.59
2022-10-01T15:09:18.517Z,100236.78
2022-10-01T15:12:05.678Z,100242.75
2022-10-01T15:14:54.353Z,100253.97
2022-10-01T15:17:42.150Z,100244.53
2022-10-01T15:20:27.522Z,100257.03
2022-10-01T15:23:12.572Z,100253.16
2022-10-01T15:26:00.112Z,100257.28
2022-10-01T15:28:44.783Z,100257.63
2022-10-01T15:31:30.355Z,100265.69
2022-10-01T15:34:22.488Z,100263.19
2022-10-01T15:37:17.745Z,100263.16
2022-10-01T15:40:05.815Z,100277.91
2022-10-01T15:43:14.759Z,100272.41
2022-10-01T15:46:05.616Z,100271.09
2022-10-01T15:49:18.270Z,100282.53
2022-10-01T15:52:23.124Z,100291.25
2022-10-01T15:55:15.751Z,100304.66
2022-10-01T15:58:10.192Z,100305.31
2022-10-01T16:01:13.698Z,100308.81
2022-10-01T16:04:10.364Z,100305.16
2022-10-01T16:06:55.298Z,100317.50
2022-10-01T16:09:51.292Z,100321.63
2022-10-01T16:12:36.445Z,100328.81
2022-10-01T16:15:27.944Z,100328.41
2022-10-01T16:18:21.921Z,100342.19
2022-10-01T16:21:09.690Z,100347.75
2022-10-01T16:23:55.906Z,100349.19
2022-10-01T16:26:41.247Z,100353.31
2022-10-01T16:29:26.744Z,100353.69
2022-10-01T16:32:14.336Z,100368.50
2022-10-01T16:35:20.215Z,100376.94
2022-10-01T16:38:09.424Z,100377.56
2022-10-01T16:40:54.355Z,100381.47
2022-10-01T16:43:39.168Z,100386.16
2022-10-01T16:46:24.341Z,100386.53
2022-10-01T16:49:13.647Z,100394.69
2022-10-01T16:51:59.127Z,100401.28
2022-10-01T16:54:44.887Z,100398.94
2022-10-01T16:57:30.045Z,100410.00
2022-10-01T17:00:17.558Z,100412.78
2022-10-01T17:03:05.363Z,100422.91
2022-10-01T17:05:50.251Z,100434.38
2022-10-01T17:08:35.178Z,100432.03
2022-10-01T17:11:20.752Z,100434.38
2022-10-01T17:14:09.698Z,100440.66
2022-10-01T17:16:55.027Z,100445.88
2022-10-01T17:19:40.036Z,100454.44
2022-10-01T17:22:25.372Z,100454.31
2022-10-01T17:25:15.193Z,100463.09
2022-10-01T17:28:02.350Z,100465.81
2022-10-01T17:30:49.094Z,100483.75
2022-10-01T17:33:34.089Z,100479.38
2022-10-01T17:36:19.190Z,100480.34
2022-10-01T17:39:04.223Z,100487.09
2022-10-01T17:41:49.816Z,100497.94
2022-10-01T17:44:34.535Z,100500.72
2022-10-01T17:47:19.507Z,100504.66
2022-10-01T17:50:04.814Z,100515.00
2022-10-01T17:52:50.336Z,100527.38
2022-10-01T17:55:39.836Z,100536.25
2022-10-01T17:58:24.639Z,100554.19
2022-10-01T18:01:13.189Z,100558.09
2022-10-01T18:04:00.221Z,100556.28
2022-10-01T18:06:46.824Z,100568.84
2022-10-01T18:09:31.673Z,100577.50
2022-10-01T18:12:16.555Z,100580.25
2022-10-01T18:15:01.816Z,100592.06
2022-10-01T18:17:51.851Z,100601.59
2022-10-01T18:20:37.703Z,100600.38
2022-10-01T18:23:22.577Z,100611.69
2022-10-01T18:26:08.839Z,100611.91
2022-10-01T18:28:53.664Z,100622.59
2022-10-01T18:31:40.880Z,100628.81
2022-10-01T18:34:45.015Z,100629.50
2022-10-01T18:37:45.579Z,100632.53
2022-10-01T18:40:40.036Z,100637.47
2022-10-01T18:43:26.018Z,100629.38
2022-10-01T18:46:40.519Z,100642.69
2022-10-01T18:50:06.345Z,100645.22
2022-10-01T18:53:12.667Z,100653.34
2022-10-01T18:56:23.263Z,100658.25
2022-10-01T18:59:43.253Z,100667.22
2022-10-01T19:02:48.133Z,100669.25
2022-10-01T19:06:05.140Z,100670.75
2022-10-01T19:09:16.800Z,100682.59
2022-10-01T19:12:34.751Z,100681.28
2022-10-01T19:15:23.911Z,100687.97
2022-10-01T19:18:33.504Z,100689.81
2022-10-01T19:21:29.630Z,100689.97
2022-10-01T19:24:52.010Z,100694.97
2022-10-01T19:27:51.335Z,100699.91
2022-10-01T19:31:08.814Z,100707.72
2022-10-01T19:34:04.874Z,100713.38
2022-10-01T19:36:59.656Z,100708.25
2022-10-01T19:39:48.751Z,100719.69
2022-10-01T19:42:38.206Z,100713.22
2022-10-01T19:45:34.703Z,100718.03
2022-10-01T19:48:29.310Z,100725.00
2022-10-01T19:51:21.577Z,100733.09
2022-10-01T19:54:16.752Z,100739.41
2022-10-01T19:57:26.015Z,100748.34
2022-10-01T20:00:19.006Z,100750.78
2022-10-01T20:03:13.837Z,100751.31
2022-10-01T20:06:24.814Z,100750.47
2022-10-01T20:09:41.298Z,100753.66
2022-10-01T20:12:38.586Z,100765.09
2022-10-01T20:16:00.820Z,100768.91
2022-10-01T20:19:05.131Z,100769.09
2022-10-01T20:22:00.492Z,100768.94
2022-10-01T20:25:14.600Z,100781.88
2022-10-01T20:28:27.393Z,100780.53
2022-10-01T20:31:24.894Z,100789.34
2022-10-01T20:34:20.575Z,100790.38
2022-10-01T20:37:25.453Z,100791.22
2022-10-01T20:40:24.684Z,100797.16
2022-10-01T20:43:19.251Z,100800.97
2022-10-01T20:46:15.866Z,100804.78
2022-10-01T20:49:05.136Z,100809.28
2022-10-01T20:52:00.421Z,100806.41
2022-10-01T20:54:53.876Z,100811.06
2022-10-01T20:57:46.996Z,100815.22
2022-10-01T21:00:32.609Z,100813.22
2022-10-01T21:03:26.048Z,100814.75
2022-10-01T21:06:16.483Z,100818.56
2022-10-01T21:09:24.875Z,100826.06
2022-10-01T21:12:18.217Z,100834.03
2022-10-01T21:15:04.934Z,100836.50
2022-10-01T21:18:15.052Z,100841.16
2022-10-01T21:21:15.330Z,100846.16
2022-10-01T21:24:11.088Z,100832.19
2022-10-01T21:27:16.712Z,100835.84
2022-10-01T21:30:18.431Z,100835.19
2022-10-01T21:33:06.331Z,100833.72
2022-10-01T21:35:56.509Z,100841.00
2022-10-01T21:38:49.476Z,100832.53
2022-10-01T21:41:59.018Z,100840.66
2022-10-01T21:45:03.947Z,100849.97
2022-10-01T21:48:08.491Z,100848.63
2022-10-01T21:50:56.551Z,100855.09
2022-10-01T21:54:19.190Z,100849.78
2022-10-01T21:57:31.991Z,100863.72
2022-10-01T22:00:28.440Z,100864.75
2022-10-01T22:03:34.156Z,100874.53
2022-10-01T22:06:36.082Z,100880.00
2022-10-01T22:09:44.214Z,100886.47
2022-10-01T22:12:33.925Z,100884.31
2022-10-01T22:15:31.077Z,100887.31
2022-10-01T22:18:24.507Z,100895.25
2022-10-01T22:21:12.492Z,100895.78
2022-10-01T22:24:14.323Z,100894.59
2022-10-01T22:27:21.127Z,100901.59
2022-10-01T22:30:17.341Z,100909.22
2022-10-01T22:33:07.918Z,100905.22
2022-10-01T22:36:00.399Z,100899.91
2022-10-01T22:38:48.107Z,100902.56
2022-10-01T22:41:40.107Z,100912.53
2022-10-01T22:44:27.543Z,100918.50
2022-10-01T22:47:32.891Z,100915.53
2022-10-01T22:50:40.798Z,100918.69
2022-10-01T22:53:31.288Z,100920.00
2022-10-01T22:56:27.452Z,100924.00
2022-10-01T22:59:40.914Z,100926.47
2022-10-01T23:02:59.178Z,100919.84
2022-10-01T23:05:58.143Z,100927.97
2022-10-01T23:09:12.015Z,100929.47
2022-10-01T23:12:19.597Z,100936.13
2022-10-01T23:15:18.979Z,100928.81
2022-10-01T23:18:30.290Z,100921.78
2022-10-01T23:21:34.032Z,100928.28
2022-10-01T23:24:43.864Z,100920.66
2022-10-01T23:27:34.547Z,100925.28
2022-10-01T23:30:20.464Z,100920.78
2022-10-01T23:33:27.669Z,100921.41
2022-10-01T23:36:35.711Z,100916.59
2022-10-01T23:39:40.488Z,100917.25
2022-10-01T23:42:38.390Z,100926.03
2022-10-01T23:45:44.816Z,100934.19
2022-10-01T23:48:38.059Z,100932.03
2022-10-01T23:51:27.983Z,100918.22
2022-10-01T23:54:43.345Z,100921.38
2022-10-01T23:57:33.877Z,100937.84
